Paxton, Florida
Current Conditions -  °F | °C
As of 7:58 PM on Monday 22 Dec 2014 (Local Time) from K0J4 Reporting Station
Moderate Fog Moderate Fog  
Wind Chill: 61°   Ceiling: 200
Heat Index: 61°   Visibility: 0.5mi
Dew Point: 60°   Wind: 0mph
Humidity: 97%   Direction: NA
Pressure: 29.85"   Gusts: NA
Location:  30.98°N, 86.31°W
Report Text: K0J4 230158Z AUTO 00000KT 1/2SM FG VV002 16/16 A2985 RMK AO2 SLP105 T01610156 $
Loading
Personal Weather Stations






























Interactive Weather Map New forecast layout! Learn more

10-Day Weather Forecast

Advertisements
Track Severe Weather on mobile